Chicago Rockford International Airport Chicago,Rockford US
ICAO: KRFD
IATA: RFD
Category: Large
Scheduled Services: Yes

Elevation: 742 ft
TransAlt. 18000 ft.

Airport Communications:
ROCKFORD APP/DEP:121
ATIS:126.7
CLNC DEL:119.25
GND:121.9
KANKAKEE RDO:122.65
ROCKFORD TWR:118.3
UNICOM:122.95

KRFD Zoom In..

Runways:

(A) RW 01 length 8200 ft width 150 ft
ILS 109.30 / hdg 5

(B) RW 07 length 10002 ft width 150 ft
ILS 109.55 / hdg 65

(C) RW 19 length 8200 ft width 150 ft
---- / hdg 185

(D) RW 25 length 10002 ft width 150 ft
---- / hdg 245

Location; KRFD
Day. 18 / Time. 13.54 Zulu
* Altimeter: 30.07
* Temperature: 22° c. 71.6°f.
* Wind from: 020° Speed 04 kn.
Dewpoint: 19° c.
Visibility: 7 Statute Miles.
Clouds: Overcast 25000 ft.

KRFD 181354Z 02004KT 7SM OVC250 22/19 A3007 RMK AO2 SLP179 T02170194


Wind From 020°
Speed 04 kn.

 
 
jpsmedia.com for Web Design worldairports.se 2018   terms of use